createdAt,value
2022-11-24T00:01:18.579Z,10.10
2022-11-24T00:03:23.354Z,10.00
2022-11-24T00:05:29.480Z,10.00
2022-11-24T00:07:34.152Z,9.90
2022-11-24T00:09:38.727Z,9.90
2022-11-24T00:11:43.319Z,9.90
2022-11-24T00:13:48.183Z,9.80
2022-11-24T00:15:52.250Z,9.80
2022-11-24T00:17:56.333Z,9.80
2022-11-24T00:20:00.996Z,9.70
2022-11-24T00:22:07.922Z,9.70
2022-11-24T00:24:13.851Z,9.70
2022-11-24T00:26:20.925Z,9.70
2022-11-24T00:28:25.102Z,9.80
2022-11-24T00:30:29.451Z,9.90
2022-11-24T00:32:33.982Z,9.80
2022-11-24T00:34:38.751Z,9.70
2022-11-24T00:36:43.524Z,9.60
2022-11-24T00:38:49.777Z,9.60
2022-11-24T00:40:54.671Z,9.60
2022-11-24T00:43:00.739Z,9.50
2022-11-24T00:45:13.547Z,9.40
2022-11-24T00:47:18.623Z,9.50
2022-11-24T00:49:23.000Z,9.40
2022-11-24T00:51:30.889Z,9.40
2022-11-24T00:53:35.859Z,9.40
2022-11-24T00:55:42.015Z,9.30
2022-11-24T00:57:46.793Z,9.40
2022-11-24T00:59:51.847Z,9.30
2022-11-24T01:01:57.953Z,9.30
2022-11-24T01:04:02.742Z,9.30
2022-11-24T01:06:08.524Z,9.40
2022-11-24T01:08:12.981Z,9.40
2022-11-24T01:10:17.926Z,9.40
2022-11-24T01:12:24.417Z,9.40
2022-11-24T01:14:30.150Z,9.30
2022-11-24T01:16:39.008Z,9.40
2022-11-24T01:18:43.361Z,9.30
2022-11-24T01:20:47.785Z,9.30
2022-11-24T01:22:53.000Z,9.20
2022-11-24T01:24:57.221Z,9.20
2022-11-24T01:27:01.447Z,9.10
2022-11-24T01:29:08.098Z,9.10
2022-11-24T01:31:15.233Z,9.10
2022-11-24T01:33:20.115Z,9.10
2022-11-24T01:35:24.336Z,9.10
2022-11-24T01:37:28.637Z,9.00
2022-11-24T01:39:33.052Z,8.90
2022-11-24T01:41:37.551Z,8.70
2022-11-24T01:43:42.122Z,8.70
2022-11-24T01:45:48.331Z,8.60
2022-11-24T01:47:54.265Z,8.60
2022-11-24T01:50:01.874Z,8.60
2022-11-24T01:52:12.913Z,8.60
2022-11-24T01:54:19.553Z,8.60
2022-11-24T01:56:24.072Z,8.50
2022-11-24T01:58:30.729Z,8.50
2022-11-24T02:00:37.871Z,8.50
2022-11-24T02:02:45.777Z,8.40
2022-11-24T02:04:51.413Z,8.40
2022-11-24T02:06:59.050Z,8.50
2022-11-24T02:09:10.439Z,8.50
2022-11-24T02:11:15.153Z,8.50
2022-11-24T02:13:19.999Z,8.50
2022-11-24T02:15:24.973Z,8.50
2022-11-24T02:17:29.327Z,8.60
2022-11-24T02:19:49.348Z,8.60
2022-11-24T02:21:53.529Z,8.60
2022-11-24T02:24:04.903Z,8.70
2022-11-24T02:26:17.822Z,8.70
2022-11-24T02:28:26.677Z,8.70
2022-11-24T02:30:32.285Z,8.70
2022-11-24T02:32:37.025Z,8.70
2022-11-24T02:34:41.554Z,8.80
2022-11-24T02:36:46.421Z,8.90
2022-11-24T02:38:52.369Z,8.90
2022-11-24T02:40:56.996Z,8.90
2022-11-24T02:43:07.043Z,8.90
2022-11-24T02:45:15.709Z,8.90
2022-11-24T02:47:20.243Z,8.90
2022-11-24T02:49:24.672Z,8.90
2022-11-24T02:51:29.715Z,8.90
2022-11-24T02:53:34.007Z,9.00
2022-11-24T02:55:38.554Z,8.90
2022-11-24T02:57:43.144Z,8.90
2022-11-24T02:59:47.900Z,8.80
2022-11-24T03:01:54.915Z,8.80
2022-11-24T03:03:59.672Z,8.80
2022-11-24T03:06:04.433Z,8.80
2022-11-24T03:08:10.126Z,8.80
2022-11-24T03:10:14.411Z,8.80
2022-11-24T03:12:18.865Z,8.70
2022-11-24T03:14:23.206Z,8.70
2022-11-24T03:16:27.597Z,8.60
2022-11-24T03:18:33.249Z,8.60
2022-11-24T03:20:37.513Z,8.60
2022-11-24T03:22:41.863Z,8.60
2022-11-24T03:24:46.148Z,8.50
2022-11-24T03:26:50.397Z,8.60
2022-11-24T03:28:58.878Z,8.50
2022-11-24T03:31:03.637Z,8.60
2022-11-24T03:33:10.172Z,8.60
2022-11-24T03:35:16.250Z,8.60
2022-11-24T03:37:21.017Z,8.60
2022-11-24T03:39:25.402Z,8.50
2022-11-24T03:41:29.890Z,8.60
2022-11-24T03:43:37.819Z,8.60
2022-11-24T03:45:49.544Z,8.60
2022-11-24T03:47:53.959Z,8.60
2022-11-24T03:49:58.705Z,8.60
2022-11-24T03:52:08.409Z,8.60
2022-11-24T03:54:12.730Z,8.50
2022-11-24T03:56:16.864Z,8.50
2022-11-24T03:58:21.295Z,8.50
2022-11-24T04:00:25.617Z,8.40
2022-11-24T04:02:29.998Z,8.30
2022-11-24T04:04:34.465Z,8.30
2022-11-24T04:06:38.913Z,8.40
2022-11-24T04:08:45.720Z,8.30
2022-11-24T04:10:52.059Z,8.30
2022-11-24T04:12:55.596Z,8.40
2022-11-24T04:15:01.552Z,8.40
2022-11-24T04:17:08.733Z,8.40
2022-11-24T04:19:13.186Z,8.40
2022-11-24T04:21:17.476Z,8.40
2022-11-24T04:23:22.040Z,8.40
2022-11-24T04:25:27.967Z,8.40
2022-11-24T04:27:33.550Z,8.40
2022-11-24T04:29:37.962Z,8.50
2022-11-24T04:31:42.390Z,8.40
2022-11-24T04:33:47.853Z,8.40
2022-11-24T04:35:54.938Z,8.40
2022-11-24T04:38:03.131Z,8.50
2022-11-24T04:40:09.876Z,8.50
2022-11-24T04:42:16.385Z,8.50
2022-11-24T04:44:21.108Z,8.50
2022-11-24T04:46:25.863Z,8.50
2022-11-24T04:48:30.345Z,8.50
2022-11-24T04:50:34.901Z,8.50
2022-11-24T04:52:39.285Z,8.50
2022-11-24T04:54:44.621Z,8.60
2022-11-24T04:56:53.293Z,8.50
2022-11-24T04:59:02.660Z,8.50
2022-11-24T05:01:10.482Z,8.50
2022-11-24T05:03:15.245Z,8.50
2022-11-24T05:05:20.029Z,8.50
2022-11-24T05:07:25.066Z,8.50
2022-11-24T05:09:48.211Z,8.60
2022-11-24T05:11:54.188Z,8.50
2022-11-24T05:13:59.983Z,8.60
2022-11-24T05:16:05.368Z,8.70
2022-11-24T05:18:14.102Z,8.70
2022-11-24T05:20:18.552Z,8.70
2022-11-24T05:22:23.342Z,8.70
2022-11-24T05:24:27.963Z,8.70
2022-11-24T05:26:32.420Z,8.70
2022-11-24T05:28:37.650Z,8.70
2022-11-24T05:30:43.831Z,8.70
2022-11-24T05:32:48.901Z,8.70
2022-11-24T05:34:54.691Z,8.70
2022-11-24T05:37:03.027Z,8.70
2022-11-24T05:39:07.934Z,8.70
2022-11-24T05:41:13.739Z,8.70
2022-11-24T05:43:18.787Z,8.70
2022-11-24T05:45:24.301Z,8.70
2022-11-24T05:47:30.439Z,8.80
2022-11-24T05:49:37.302Z,8.80
2022-11-24T05:51:41.834Z,8.80
2022-11-24T05:53:47.719Z,8.80
2022-11-24T05:55:52.118Z,8.70
2022-11-24T05:58:00.363Z,8.80
2022-11-24T06:00:05.938Z,8.70
2022-11-24T06:02:16.696Z,8.80
2022-11-24T06:04:22.430Z,8.80
2022-11-24T06:06:26.735Z,8.70
2022-11-24T06:08:31.591Z,8.80
2022-11-24T06:10:36.003Z,8.80
2022-11-24T06:12:40.497Z,8.80
2022-11-24T06:14:46.450Z,8.90
2022-11-24T06:16:51.200Z,8.90
2022-11-24T06:18:55.678Z,8.90
2022-11-24T06:21:10.858Z,8.90
2022-11-24T06:23:16.385Z,9.00
2022-11-24T06:25:21.200Z,9.00
2022-11-24T06:27:25.704Z,9.00
2022-11-24T06:29:30.157Z,8.90
2022-11-24T06:31:34.777Z,8.90
2022-11-24T06:33:40.447Z,8.90
2022-11-24T06:35:44.516Z,8.90
2022-11-24T06:37:50.110Z,9.00
2022-11-24T06:39:54.694Z,9.00
2022-11-24T06:41:59.390Z,9.00
2022-11-24T06:44:05.679Z,9.00
2022-11-24T06:46:10.414Z,9.00
2022-11-24T06:48:14.558Z,9.00
2022-11-24T06:50:18.858Z,9.00
2022-11-24T06:52:24.146Z,9.10
2022-11-24T06:54:30.930Z,9.10
2022-11-24T06:56:35.868Z,9.10
2022-11-24T06:58:43.732Z,9.10
2022-11-24T07:00:48.000Z,9.10
2022-11-24T07:02:52.454Z,9.20
2022-11-24T07:04:59.261Z,9.20
2022-11-24T07:07:04.756Z,9.10
2022-11-24T07:09:10.632Z,9.10
2022-11-24T07:11:22.961Z,9.20
2022-11-24T07:13:28.600Z,9.10
2022-11-24T07:15:33.122Z,9.20
2022-11-24T07:17:38.187Z,9.10
2022-11-24T07:19:42.580Z,9.10
2022-11-24T07:21:48.143Z,9.20
2022-11-24T07:23:55.252Z,9.20
2022-11-24T07:26:06.425Z,9.20
2022-11-24T07:28:12.827Z,9.20
2022-11-24T07:30:17.929Z,9.20
2022-11-24T07:32:23.579Z,9.20
2022-11-24T07:34:37.196Z,9.20
2022-11-24T07:36:42.108Z,9.10
2022-11-24T07:38:48.153Z,9.10
2022-11-24T07:40:53.688Z,9.10
2022-11-24T07:43:01.289Z,9.10
2022-11-24T07:45:10.769Z,9.10
2022-11-24T07:47:15.127Z,9.20
2022-11-24T07:49:20.408Z,9.20
2022-11-24T07:51:28.677Z,9.30
2022-11-24T07:53:34.325Z,9.30
2022-11-24T07:55:38.662Z,9.50
2022-11-24T07:57:43.526Z,9.60
2022-11-24T07:59:48.584Z,9.60
2022-11-24T08:01:54.756Z,9.70
2022-11-24T08:03:59.581Z,9.80
2022-11-24T08:08:33.715Z,9.80
2022-11-24T08:10:40.845Z,9.70
2022-11-24T08:12:47.908Z,9.70
2022-11-24T08:14:55.928Z,9.70
2022-11-24T08:17:02.354Z,9.70
2022-11-24T08:19:11.055Z,9.70
2022-11-24T08:21:16.000Z,9.70
2022-11-24T08:23:22.656Z,9.70
2022-11-24T08:25:33.965Z,9.70
2022-11-24T08:27:41.041Z,9.70
2022-11-24T08:29:45.963Z,9.60
2022-11-24T08:31:50.988Z,9.70
2022-11-24T08:33:58.063Z,9.60
2022-11-24T08:36:06.560Z,9.70
2022-11-24T08:38:11.199Z,9.70
2022-11-24T08:40:16.954Z,9.60
2022-11-24T08:42:22.266Z,9.70
2022-11-24T08:44:28.653Z,9.70
2022-11-24T08:46:33.021Z,9.70
2022-11-24T08:48:38.154Z,9.70
2022-11-24T08:50:44.208Z,9.70
2022-11-24T08:52:48.779Z,9.80
2022-11-24T08:54:54.521Z,9.70
2022-11-24T08:56:58.698Z,9.60
2022-11-24T08:59:03.627Z,9.60
2022-11-24T09:01:09.469Z,9.60
2022-11-24T09:03:14.034Z,9.60
2022-11-24T09:05:50.240Z,9.70
2022-11-24T09:07:43.776Z,9.80
2022-11-24T09:09:47.970Z,9.70
2022-11-24T09:11:52.083Z,9.70
2022-11-24T09:19:59.695Z,9.60
2022-11-24T09:28:01.533Z,9.60
2022-11-24T09:33:15.233Z,9.60
2022-11-24T09:53:42.571Z,9.80
2022-11-24T10:07:53.984Z,9.90
2022-11-24T10:31:07.729Z,10.40
2022-11-24T10:35:22.111Z,10.30
2022-11-24T10:46:58.219Z,10.60
2022-11-24T10:52:32.629Z,10.60
2022-11-24T10:54:56.214Z,10.50
2022-11-24T10:57:01.193Z,10.30
2022-11-24T10:59:32.927Z,10.30
2022-11-24T11:01:38.252Z,10.20
2022-11-24T11:03:48.974Z,10.20
2022-11-24T11:06:07.734Z,10.10
2022-11-24T11:08:49.947Z,10.10
2022-11-24T11:11:40.335Z,10.20
2022-11-24T11:14:03.564Z,10.10
2022-11-24T11:16:28.954Z,10.10
2022-11-24T11:18:59.543Z,10.10
2022-11-24T11:21:50.728Z,10.10
2022-11-24T11:31:14.321Z,10.00
2022-11-24T11:31:25.508Z,10.00
2022-11-24T11:34:12.512Z,10.00
2022-11-24T11:36:11.264Z,10.00
2022-11-24T11:38:17.799Z,9.90
2022-11-24T11:40:36.737Z,10.00
2022-11-24T11:43:04.972Z,10.10
2022-11-24T11:45:16.579Z,10.10
2022-11-24T11:47:26.884Z,10.30
2022-11-24T11:49:31.887Z,10.30
2022-11-24T11:51:54.698Z,10.30
2022-11-24T11:54:15.004Z,10.40
2022-11-24T11:56:26.095Z,10.50
2022-11-24T11:59:08.946Z,10.50
2022-11-24T12:01:38.811Z,10.50
2022-11-24T12:04:10.165Z,10.50
2022-11-24T12:06:31.497Z,10.60
2022-11-24T12:09:18.693Z,10.70
2022-11-24T12:11:25.068Z,10.80
2022-11-24T12:13:50.068Z,10.70
2022-11-24T12:15:58.872Z,10.80
2022-11-24T12:18:48.662Z,10.90
2022-11-24T12:20:55.785Z,10.90
2022-11-24T12:23:11.160Z,10.90
2022-11-24T12:25:35.048Z,11.00
2022-11-24T12:27:53.553Z,11.00
2022-11-24T12:30:20.675Z,11.00
2022-11-24T12:33:10.591Z,11.00
2022-11-24T12:35:28.915Z,11.10
2022-11-24T12:37:47.805Z,11.10
2022-11-24T12:40:00.421Z,11.00
2022-11-24T12:42:14.859Z,11.00
2022-11-24T12:44:55.389Z,11.00
2022-11-24T12:47:15.359Z,10.90
2022-11-24T12:49:29.881Z,10.80
2022-11-24T12:51:53.924Z,10.80
2022-11-24T12:54:16.430Z,10.70
2022-11-24T12:56:36.219Z,10.60
2022-11-24T12:59:15.042Z,10.60
2022-11-24T13:01:33.580Z,10.60
2022-11-24T13:03:51.957Z,10.50
2022-11-24T13:06:10.691Z,10.30
2022-11-24T13:08:17.902Z,10.10
2022-11-24T13:13:12.028Z,9.90
2022-11-24T13:16:20.691Z,9.90
2022-11-24T13:19:00.259Z,9.80
2022-11-24T13:21:42.159Z,9.70
2022-11-24T13:24:06.857Z,9.60
2022-11-24T13:26:49.230Z,9.60
2022-11-24T13:29:42.314Z,9.50
2022-11-24T13:31:46.572Z,9.60
2022-11-24T13:34:07.322Z,9.50
2022-11-24T13:36:36.299Z,9.60
2022-11-24T13:38:42.263Z,9.60
2022-11-24T13:41:06.321Z,9.70
2022-11-24T13:43:24.687Z,9.70
2022-11-24T13:45:51.532Z,9.80
2022-11-24T13:47:56.073Z,9.70
2022-11-24T13:50:03.659Z,9.70
2022-11-24T13:52:46.254Z,9.80
2022-11-24T13:54:52.726Z,9.80
2022-11-24T13:57:34.424Z,9.60
2022-11-24T13:59:45.891Z,9.70
2022-11-24T14:01:58.959Z,9.60
2022-11-24T14:04:31.527Z,9.60
2022-11-24T14:06:45.506Z,9.50
2022-11-24T14:08:51.025Z,9.50
2022-11-24T14:10:56.137Z,9.50
2022-11-24T14:13:26.595Z,9.40
2022-11-24T14:15:34.779Z,9.30
2022-11-24T14:17:39.505Z,9.40
2022-11-24T14:19:48.024Z,9.40
2022-11-24T14:21:53.760Z,9.30
2022-11-24T14:24:01.241Z,9.20
2022-11-24T14:26:05.653Z,9.20
2022-11-24T14:28:21.655Z,9.20
2022-11-24T14:30:27.201Z,9.10
2022-11-24T14:32:31.738Z,9.00
2022-11-24T14:34:37.677Z,9.00
2022-11-24T14:36:43.273Z,9.00
2022-11-24T14:38:49.364Z,9.00
2022-11-24T14:40:55.629Z,9.00
2022-11-24T14:42:59.797Z,8.90
2022-11-24T14:45:05.365Z,9.00
2022-11-24T14:47:19.930Z,8.90
2022-11-24T14:49:24.966Z,8.90
2022-11-24T14:51:32.319Z,8.80
2022-11-24T14:53:36.783Z,8.70
2022-11-24T14:55:42.695Z,8.70
2022-11-24T14:57:46.941Z,8.70
2022-11-24T15:00:25.577Z,8.60
2022-11-24T15:02:43.372Z,8.60
2022-11-24T15:05:03.340Z,8.50
2022-11-24T15:07:16.203Z,8.60
2022-11-24T15:09:28.244Z,8.60
2022-11-24T15:11:35.035Z,8.60
2022-11-24T15:13:39.893Z,8.60
2022-11-24T15:15:49.535Z,8.60
2022-11-24T15:17:56.629Z,8.50
2022-11-24T15:20:04.738Z,8.50
2022-11-24T15:22:36.911Z,8.50
2022-11-24T15:24:52.613Z,8.40
2022-11-24T15:27:04.171Z,8.50
2022-11-24T15:29:08.622Z,8.50
2022-11-24T15:31:14.677Z,8.50
2022-11-24T15:33:20.095Z,8.60
2022-11-24T15:35:25.283Z,8.50
2022-11-24T15:37:34.005Z,8.50
2022-11-24T15:39:38.347Z,8.50
2022-11-24T15:41:43.256Z,8.50
2022-11-24T15:43:49.331Z,8.50
2022-11-24T15:45:53.468Z,8.50
2022-11-24T15:47:57.827Z,8.50
2022-11-24T15:50:02.186Z,8.50
2022-11-24T15:52:08.246Z,8.50
2022-11-24T15:54:16.194Z,8.50
2022-11-24T15:56:26.738Z,8.50
2022-11-24T15:58:31.400Z,8.50
2022-11-24T16:00:38.304Z,8.50
2022-11-24T16:02:42.692Z,8.40
2022-11-24T16:04:47.233Z,8.40
2022-11-24T16:06:51.852Z,8.40
2022-11-24T16:08:58.193Z,8.40
2022-11-24T16:11:03.931Z,8.40
2022-11-24T16:13:08.633Z,8.30
2022-11-24T16:15:12.701Z,8.30
2022-11-24T16:17:18.833Z,8.40
2022-11-24T16:19:23.118Z,8.30
2022-11-24T16:21:29.268Z,8.30
2022-11-24T16:23:35.228Z,8.30
2022-11-24T16:25:39.618Z,8.30
2022-11-24T16:27:43.761Z,8.20
2022-11-24T16:29:50.152Z,8.10
2022-11-24T16:31:54.437Z,8.10
2022-11-24T16:34:00.705Z,8.10
2022-11-24T16:36:05.089Z,8.10
2022-11-24T16:38:15.973Z,8.10
2022-11-24T16:40:20.690Z,8.10
2022-11-24T16:42:25.159Z,8.10
2022-11-24T16:44:29.266Z,8.20
2022-11-24T16:46:33.442Z,8.20
2022-11-24T16:48:38.498Z,8.30
2022-11-24T16:50:44.707Z,8.20
2022-11-24T16:52:49.111Z,8.20
2022-11-24T16:54:53.370Z,8.10
2022-11-24T16:56:57.898Z,8.10
2022-11-24T16:59:02.550Z,8.00
2022-11-24T17:01:08.117Z,8.00
2022-11-24T17:03:12.608Z,8.00
2022-11-24T17:05:16.835Z,7.90
2022-11-24T17:07:22.760Z,7.90
2022-11-24T17:09:27.096Z,7.90
2022-11-24T17:11:31.330Z,7.80
2022-11-24T17:13:35.741Z,7.80
2022-11-24T17:15:46.139Z,7.80
2022-11-24T17:18:22.490Z,7.80
2022-11-24T17:20:17.713Z,7.80
2022-11-24T17:22:23.371Z,7.70
2022-11-24T17:24:27.663Z,7.70
2022-11-24T17:26:32.462Z,7.60
2022-11-24T17:28:36.767Z,7.60
2022-11-24T17:30:40.862Z,7.50
2022-11-24T17:32:45.055Z,7.50
2022-11-24T17:34:49.340Z,7.50
2022-11-24T17:36:53.465Z,7.40
2022-11-24T17:39:00.472Z,7.50
2022-11-24T17:41:07.516Z,7.50
2022-11-24T17:43:11.663Z,7.40
2022-11-24T17:45:16.066Z,7.30
2022-11-24T17:47:20.499Z,7.30
2022-11-24T17:49:24.647Z,7.30
2022-11-24T17:51:28.910Z,7.30
2022-11-24T17:53:33.634Z,7.30
2022-11-24T17:55:42.998Z,7.30
2022-11-24T17:57:47.264Z,7.30
2022-11-24T17:59:53.129Z,7.30
2022-11-24T18:01:57.594Z,7.20
2022-11-24T18:04:01.836Z,7.20
2022-11-24T18:06:07.452Z,7.20
2022-11-24T18:08:12.288Z,7.20
2022-11-24T18:10:16.673Z,7.20
2022-11-24T18:12:23.558Z,7.20
2022-11-24T18:14:28.034Z,7.10
2022-11-24T18:16:33.587Z,7.10
2022-11-24T18:18:40.297Z,7.10
2022-11-24T18:20:44.661Z,7.00
2022-11-24T18:23:05.018Z,7.00
2022-11-24T18:25:10.370Z,7.00
2022-11-24T18:27:14.535Z,7.00
2022-11-24T18:29:20.062Z,7.00
2022-11-24T18:31:24.289Z,7.00
2022-11-24T18:33:28.434Z,7.00
2022-11-24T18:35:32.602Z,7.00
2022-11-24T18:37:43.264Z,7.00
2022-11-24T18:39:48.237Z,7.00
2022-11-24T18:41:52.623Z,7.00
2022-11-24T18:43:56.797Z,7.00
2022-11-24T18:46:10.369Z,7.00
2022-11-24T18:48:14.857Z,7.00
2022-11-24T18:50:19.799Z,6.90
2022-11-24T18:52:23.966Z,6.90
2022-11-24T18:54:29.272Z,6.90
2022-11-24T18:56:33.760Z,6.90
2022-11-24T18:58:38.016Z,6.90
2022-11-24T19:00:42.206Z,7.00
2022-11-24T19:02:51.942Z,7.00
2022-11-24T19:04:56.864Z,7.00
2022-11-24T19:07:01.101Z,7.00
2022-11-24T19:09:06.801Z,6.90
2022-11-24T19:11:19.074Z,6.80
2022-11-24T19:13:23.265Z,6.80
2022-11-24T19:15:27.767Z,6.80
2022-11-24T19:17:32.143Z,6.80
2022-11-24T19:19:39.710Z,6.90
2022-11-24T19:21:44.082Z,6.90
2022-11-24T19:23:50.977Z,7.00
2022-11-24T19:25:55.482Z,7.00
2022-11-24T19:28:00.026Z,6.90
2022-11-24T19:30:05.183Z,6.90
2022-11-24T19:32:09.774Z,6.80
2022-11-24T19:34:14.257Z,6.70
2022-11-24T19:36:22.503Z,6.70
2022-11-24T19:38:30.090Z,6.70
2022-11-24T19:40:34.850Z,6.80
2022-11-24T19:42:40.064Z,6.80
2022-11-24T19:44:44.559Z,6.80
2022-11-24T19:46:48.986Z,6.70
2022-11-24T19:48:54.494Z,6.70
2022-11-24T19:51:01.101Z,6.60
2022-11-24T19:53:06.753Z,6.60
2022-11-24T19:55:11.269Z,6.60
2022-11-24T19:57:16.109Z,6.60
2022-11-24T19:59:23.539Z,6.60
2022-11-24T20:01:31.002Z,6.60
2022-11-24T20:03:36.040Z,6.70
2022-11-24T20:05:40.458Z,6.70
2022-11-24T20:07:45.576Z,6.80
2022-11-24T20:09:53.352Z,6.70
2022-11-24T20:11:57.544Z,6.70
2022-11-24T20:14:02.360Z,6.80
2022-11-24T20:16:09.233Z,6.80
2022-11-24T20:18:13.701Z,6.80
2022-11-24T20:20:18.033Z,6.80
2022-11-24T20:22:22.214Z,6.90
2022-11-24T20:24:26.488Z,6.80
2022-11-24T20:26:35.066Z,6.80
2022-11-24T20:28:39.630Z,6.70
2022-11-24T20:30:46.645Z,6.80
2022-11-24T20:32:51.225Z,6.80
2022-11-24T20:34:55.477Z,6.90
2022-11-24T20:36:59.784Z,7.00
2022-11-24T20:39:07.872Z,7.00
2022-11-24T20:41:13.634Z,7.10
2022-11-24T20:43:19.374Z,7.10
2022-11-24T20:45:23.656Z,7.10
2022-11-24T20:47:28.214Z,7.10
2022-11-24T20:49:32.439Z,7.20
2022-11-24T20:51:39.173Z,7.20
2022-11-24T20:53:43.384Z,7.20
2022-11-24T20:55:47.524Z,7.20
2022-11-24T20:57:51.807Z,7.20
2022-11-24T20:59:57.382Z,7.20
2022-11-24T21:02:01.749Z,7.20
2022-11-24T21:04:09.201Z,7.20
2022-11-24T21:06:14.461Z,7.20
2022-11-24T21:08:19.400Z,7.20
2022-11-24T21:10:23.656Z,7.20
2022-11-24T21:12:27.810Z,7.20
2022-11-24T21:14:35.212Z,7.20
2022-11-24T21:16:43.248Z,7.30
2022-11-24T21:18:51.585Z,7.40
2022-11-24T21:20:55.803Z,7.40
2022-11-24T21:22:59.945Z,7.40
2022-11-24T21:25:04.252Z,7.40
2022-11-24T21:27:08.398Z,7.40
2022-11-24T21:29:14.220Z,7.40
2022-11-24T21:31:20.702Z,7.40
2022-11-24T21:33:26.698Z,7.40
2022-11-24T21:35:30.981Z,7.40
2022-11-24T21:37:35.499Z,7.50
2022-11-24T21:39:43.622Z,7.50
2022-11-24T21:41:47.819Z,7.50
2022-11-24T21:43:52.892Z,7.50
2022-11-24T21:45:57.172Z,7.50
2022-11-24T21:48:01.711Z,7.50
2022-11-24T21:50:08.593Z,7.50
2022-11-24T21:52:12.713Z,7.50
2022-11-24T21:54:16.839Z,7.50
2022-11-24T21:56:23.083Z,7.60
2022-11-24T21:58:28.703Z,7.50
2022-11-24T22:00:32.782Z,7.50
2022-11-24T22:02:37.266Z,7.50
2022-11-24T22:04:41.399Z,7.50
2022-11-24T22:06:46.970Z,7.50
2022-11-24T22:08:51.224Z,7.40
2022-11-24T22:11:00.940Z,7.40
2022-11-24T22:13:05.057Z,7.40
2022-11-24T22:15:10.010Z,7.50
2022-11-24T22:17:14.711Z,7.50
2022-11-24T22:19:19.336Z,7.60
2022-11-24T22:21:30.010Z,7.70
2022-11-24T22:23:36.890Z,7.60
2022-11-24T22:25:41.005Z,7.70
2022-11-24T22:27:45.172Z,7.60
2022-11-24T22:29:54.017Z,7.60
2022-11-24T22:31:59.041Z,7.60
2022-11-24T22:34:03.598Z,7.60
2022-11-24T22:36:08.399Z,7.60
2022-11-24T22:38:12.493Z,7.60
2022-11-24T22:40:18.552Z,7.70
2022-11-24T22:42:22.661Z,7.70
2022-11-24T22:44:27.046Z,7.70
2022-11-24T22:46:32.209Z,7.70
2022-11-24T22:48:36.384Z,7.80
2022-11-24T22:50:40.483Z,7.70
2022-11-24T22:52:44.663Z,7.80
2022-11-24T22:54:48.909Z,7.80
2022-11-24T22:56:54.432Z,7.70
2022-11-24T22:58:59.526Z,7.80
2022-11-24T23:01:07.367Z,7.80
2022-11-24T23:03:11.741Z,7.70
2022-11-24T23:05:20.589Z,7.60
2022-11-24T23:07:25.145Z,7.60
2022-11-24T23:09:29.326Z,7.70
2022-11-24T23:11:38.114Z,7.70
2022-11-24T23:13:44.235Z,7.80
2022-11-24T23:15:48.360Z,7.80
2022-11-24T23:17:52.596Z,7.80
2022-11-24T23:19:56.766Z,7.90
2022-11-24T23:22:01.134Z,7.90
2022-11-24T23:24:06.893Z,8.00
2022-11-24T23:26:13.458Z,8.10
2022-11-24T23:28:17.590Z,8.00
2022-11-24T23:30:23.129Z,8.10
2022-11-24T23:32:27.213Z,8.10
2022-11-24T23:34:31.353Z,8.10
2022-11-24T23:36:35.459Z,8.10
2022-11-24T23:38:39.842Z,8.10
2022-11-24T23:40:43.979Z,8.00
2022-11-24T23:42:48.716Z,8.00
2022-11-24T23:44:52.839Z,7.90
2022-11-24T23:46:58.377Z,7.90
2022-11-24T23:49:02.580Z,7.70
2022-11-24T23:51:07.788Z,7.60
2022-11-24T23:53:12.006Z,7.50
2022-11-24T23:55:16.238Z,7.40
2022-11-24T23:57:20.333Z,7.50
2022-11-24T23:59:24.433Z,7.40
